createdAt,value
2017-04-04T00:00:11.574Z,0
2017-04-04T00:00:52.173Z,0
2017-04-04T00:01:32.806Z,0
2017-04-04T00:02:13.468Z,0
2017-04-04T00:02:54.108Z,0
2017-04-04T00:03:34.771Z,0
2017-04-04T00:04:16.454Z,0
2017-04-04T00:04:57.105Z,0
2017-04-04T00:05:37.749Z,0
2017-04-04T00:06:18.409Z,0
2017-04-04T00:06:59.108Z,0
2017-04-04T00:07:39.710Z,0
2017-04-04T00:08:20.384Z,0
2017-04-04T00:09:01.021Z,0
2017-04-04T00:09:41.664Z,0
2017-04-04T00:10:22.239Z,0
2017-04-04T00:11:02.861Z,0
2017-04-04T00:11:43.532Z,0
2017-04-04T00:12:24.095Z,0
2017-04-04T00:13:04.736Z,0
2017-04-04T00:13:45.375Z,0
2017-04-04T00:14:25.954Z,0
2017-04-04T00:15:06.589Z,0
2017-04-04T00:15:47.244Z,0
2017-04-04T00:16:27.898Z,0
2017-04-04T00:17:08.551Z,0
2017-04-04T00:17:49.916Z,0
2017-04-04T00:18:30.559Z,0
2017-04-04T00:19:12.153Z,0
2017-04-04T00:19:52.792Z,0
2017-04-04T00:20:33.458Z,0
2017-04-04T00:21:14.119Z,0
2017-04-04T00:21:54.754Z,0
2017-04-04T00:22:35.408Z,0
2017-04-04T00:23:16.070Z,0
2017-04-04T00:23:56.721Z,0
2017-04-04T00:24:37.364Z,0
2017-04-04T00:25:18.031Z,0
2017-04-04T00:25:58.675Z,0
2017-04-04T00:26:39.334Z,0
2017-04-04T00:27:21.014Z,0
2017-04-04T00:28:01.672Z,0
2017-04-04T00:28:42.316Z,0
2017-04-04T00:29:22.969Z,0
2017-04-04T00:30:03.613Z,0
2017-04-04T00:30:44.279Z,0
2017-04-04T00:31:24.917Z,0
2017-04-04T00:32:05.580Z,0
2017-04-04T00:32:47.277Z,0
2017-04-04T00:33:27.901Z,0
2017-04-04T00:34:09.580Z,0
2017-04-04T00:34:50.250Z,0
2017-04-04T00:35:30.886Z,0
2017-04-04T00:36:11.566Z,0
2017-04-04T00:36:52.240Z,0
2017-04-04T00:37:33.880Z,0
2017-04-04T00:38:15.339Z,0
2017-04-04T00:38:56.001Z,0
2017-04-04T00:39:36.653Z,0
2017-04-04T00:40:17.311Z,0
2017-04-04T00:40:57.955Z,0
2017-04-04T00:41:38.612Z,0
2017-04-04T00:42:19.340Z,0
2017-04-04T00:42:59.919Z,0
2017-04-04T00:43:40.625Z,0
2017-04-04T00:44:21.222Z,0
2017-04-04T00:45:01.870Z,0
2017-04-04T00:45:42.434Z,0
2017-04-04T00:46:23.018Z,0
2017-04-04T00:47:03.613Z,0
2017-04-04T00:47:44.282Z,0
2017-04-04T00:48:24.903Z,0
2017-04-04T00:49:05.561Z,0
2017-04-04T00:49:46.137Z,0
2017-04-04T00:50:26.786Z,0
2017-04-04T00:51:07.454Z,0
2017-04-04T00:51:48.095Z,0
2017-04-04T00:52:28.761Z,0
2017-04-04T00:53:09.408Z,0
2017-04-04T00:53:50.057Z,0
2017-04-04T00:54:30.712Z,0
2017-04-04T00:55:12.289Z,0
2017-04-04T00:55:52.944Z,0
2017-04-04T00:56:33.589Z,0
2017-04-04T00:57:14.241Z,0
2017-04-04T00:57:54.901Z,0
2017-04-04T00:58:35.556Z,0
2017-04-04T00:59:16.200Z,0
2017-04-04T00:59:56.854Z,0
2017-04-04T01:00:37.953Z,0
2017-04-04T01:01:18.624Z,0
2017-04-04T01:01:59.222Z,0
2017-04-04T01:02:39.875Z,0
2017-04-04T01:03:20.502Z,0
2017-04-04T01:04:01.130Z,0
2017-04-04T01:04:41.746Z,0
2017-04-04T01:05:22.383Z,0
2017-04-04T01:06:03.037Z,0
2017-04-04T01:06:43.690Z,0
2017-04-04T01:07:24.335Z,0
2017-04-04T01:08:05.000Z,0
2017-04-04T01:08:45.653Z,0
2017-04-04T01:09:26.305Z,0
2017-04-04T01:10:07.978Z,0
2017-04-04T01:10:48.566Z,0
2017-04-04T01:11:29.231Z,0
2017-04-04T01:12:09.854Z,0
2017-04-04T01:12:50.521Z,0
2017-04-04T01:13:31.078Z,0
2017-04-04T01:14:11.753Z,0
2017-04-04T01:14:52.396Z,0
2017-04-04T01:15:33.003Z,0
2017-04-04T01:16:13.657Z,0
2017-04-04T01:16:54.300Z,0
2017-04-04T01:17:34.970Z,0
2017-04-04T01:18:15.622Z,0
2017-04-04T01:18:56.260Z,0
2017-04-04T01:19:36.916Z,0
2017-04-04T01:20:17.567Z,0
2017-04-04T01:20:58.225Z,0
2017-04-04T01:21:38.876Z,0
2017-04-04T01:22:19.525Z,0
2017-04-04T01:23:00.959Z,0
2017-04-04T01:23:41.550Z,0
2017-04-04T01:24:22.200Z,0
2017-04-04T01:25:02.861Z,0
2017-04-04T01:25:43.443Z,0
2017-04-04T01:26:24.108Z,0
2017-04-04T01:27:04.699Z,0
2017-04-04T01:27:45.371Z,0
2017-04-04T01:28:27.050Z,0
2017-04-04T01:29:07.616Z,0
2017-04-04T01:29:48.197Z,0
2017-04-04T01:30:28.798Z,0
2017-04-04T01:31:09.457Z,0
2017-04-04T01:31:50.110Z,0
2017-04-04T01:32:30.771Z,0
2017-04-04T01:33:11.446Z,0
2017-04-04T01:33:51.997Z,0
2017-04-04T01:34:32.665Z,0
2017-04-04T01:35:14.070Z,0
2017-04-04T01:35:54.715Z,0
2017-04-04T01:36:35.280Z,0
2017-04-04T01:37:15.938Z,0
2017-04-04T01:37:56.518Z,0
2017-04-04T01:38:37.102Z,0
2017-04-04T01:39:17.691Z,0
2017-04-04T01:39:58.348Z,0
2017-04-04T01:40:38.918Z,0
2017-04-04T01:41:19.507Z,0
2017-04-04T01:42:00.094Z,0
2017-04-04T01:42:40.757Z,0
2017-04-04T01:43:21.337Z,0
2017-04-04T01:44:01.904Z,0
2017-04-04T01:44:42.517Z,0
2017-04-04T01:45:24.182Z,0
2017-04-04T01:46:04.750Z,0
2017-04-04T01:46:45.402Z,0
2017-04-04T01:47:26.049Z,0
2017-04-04T01:48:06.619Z,0
2017-04-04T01:48:47.260Z,0
2017-04-04T01:49:27.905Z,0
2017-04-04T01:50:08.482Z,0
2017-04-04T01:50:49.098Z,0
2017-04-04T01:51:29.752Z,0
2017-04-04T01:52:10.415Z,0
2017-04-04T01:52:51.052Z,0
2017-04-04T01:53:31.713Z,0
2017-04-04T01:54:12.372Z,0
2017-04-04T01:54:53.018Z,0
2017-04-04T01:55:33.697Z,0
2017-04-04T01:56:14.327Z,0
2017-04-04T01:56:54.895Z,0
2017-04-04T01:57:36.568Z,0
2017-04-04T01:58:17.207Z,0
2017-04-04T01:58:57.809Z,0
2017-04-04T01:59:38.420Z,0
2017-04-04T02:00:19.060Z,0
2017-04-04T02:00:59.644Z,0
2017-04-04T02:01:40.241Z,0
2017-04-04T02:02:20.920Z,0
2017-04-04T02:03:02.594Z,0
2017-04-04T02:03:43.974Z,0
2017-04-04T02:04:24.593Z,0
2017-04-04T02:05:05.167Z,0
2017-04-04T02:05:45.830Z,0
2017-04-04T02:06:26.500Z,0
2017-04-04T02:07:07.131Z,0
2017-04-04T02:07:47.785Z,0
2017-04-04T02:08:28.455Z,0
2017-04-04T02:09:09.086Z,0
2017-04-04T02:09:49.739Z,0
2017-04-04T02:10:30.403Z,0
2017-04-04T02:11:10.969Z,0
2017-04-04T02:11:51.559Z,0
2017-04-04T02:12:32.162Z,0
2017-04-04T02:13:12.801Z,0
2017-04-04T02:13:53.379Z,0
2017-04-04T02:14:34.043Z,0
2017-04-04T02:15:14.655Z,0
2017-04-04T02:15:56.335Z,0
2017-04-04T02:16:36.905Z,0
2017-04-04T02:17:17.507Z,0
2017-04-04T02:17:58.105Z,0
2017-04-04T02:18:38.759Z,0
2017-04-04T02:19:19.332Z,0
2017-04-04T02:20:00.017Z,0
2017-04-04T02:20:40.611Z,0
2017-04-04T02:21:21.240Z,0
2017-04-04T02:22:01.818Z,0
2017-04-04T02:22:42.468Z,0
2017-04-04T02:23:23.111Z,0
2017-04-04T02:24:03.679Z,0
2017-04-04T02:24:44.312Z,0
2017-04-04T02:25:24.961Z,0
2017-04-04T02:26:05.536Z,0
2017-04-04T02:26:46.256Z,0
2017-04-04T02:27:26.811Z,0
2017-04-04T02:28:07.475Z,0
2017-04-04T02:28:48.041Z,0
2017-04-04T02:29:28.649Z,0
2017-04-04T02:30:09.226Z,0
2017-04-04T02:30:50.909Z,0
2017-04-04T02:31:31.562Z,0
2017-04-04T02:32:13.136Z,0
2017-04-04T02:32:53.792Z,0
2017-04-04T02:33:34.443Z,0
2017-04-04T02:34:16.122Z,0
2017-04-04T02:34:56.774Z,0
2017-04-04T02:35:37.430Z,0
2017-04-04T02:36:18.081Z,0
2017-04-04T02:36:58.735Z,0
2017-04-04T02:37:39.386Z,0
2017-04-04T02:38:20.041Z,0
2017-04-04T02:39:00.684Z,0
2017-04-04T02:39:41.345Z,0
2017-04-04T02:40:22.101Z,0
2017-04-04T02:41:02.752Z,0
2017-04-04T02:41:44.425Z,0
2017-04-04T02:42:25.077Z,0
2017-04-04T02:43:05.730Z,0
2017-04-04T02:43:46.390Z,0
2017-04-04T02:44:27.043Z,0
2017-04-04T02:45:07.697Z,0
2017-04-04T02:45:48.321Z,0
2017-04-04T02:46:28.900Z,0
2017-04-04T02:47:09.550Z,0
2017-04-04T02:47:50.138Z,0
2017-04-04T02:48:30.761Z,0
2017-04-04T02:49:11.413Z,0
2017-04-04T02:49:51.964Z,0
2017-04-04T02:50:32.618Z,0
2017-04-04T02:51:13.268Z,0
2017-04-04T02:51:53.843Z,0
2017-04-04T02:52:34.517Z,0
2017-04-04T02:53:15.170Z,0
2017-04-04T02:53:55.875Z,0
2017-04-04T02:54:36.463Z,0
2017-04-04T02:55:18.062Z,0
2017-04-04T02:55:58.665Z,0
2017-04-04T02:56:39.313Z,0
2017-04-04T02:57:20.979Z,0
2017-04-04T02:58:01.634Z,0
2017-04-04T02:58:42.314Z,0
2017-04-04T02:59:22.937Z,0
2017-04-04T03:00:04.524Z,0
2017-04-04T03:00:45.168Z,0
2017-04-04T03:01:25.831Z,0
2017-04-04T03:02:07.498Z,0
2017-04-04T03:02:48.151Z,0
2017-04-04T03:03:28.809Z,0
2017-04-04T03:04:09.452Z,0
2017-04-04T03:04:51.159Z,0
2017-04-04T03:05:32.809Z,0
2017-04-04T03:06:13.467Z,0
2017-04-04T03:06:54.423Z,0
2017-04-04T03:07:35.075Z,0
2017-04-04T03:08:15.737Z,0
2017-04-04T03:08:56.386Z,0
2017-04-04T03:09:38.985Z,0
2017-04-04T03:10:19.640Z,0
2017-04-04T03:11:00.218Z,0
2017-04-04T03:11:40.898Z,0
2017-04-04T03:12:21.487Z,0
2017-04-04T03:13:02.142Z,0
2017-04-04T03:13:42.729Z,0
2017-04-04T03:14:23.407Z,0
2017-04-04T03:15:04.102Z,0
2017-04-04T03:15:44.753Z,0
2017-04-04T03:16:25.308Z,0
2017-04-04T03:17:05.907Z,0
2017-04-04T03:17:46.505Z,0
2017-04-04T03:18:28.192Z,0
2017-04-04T03:19:08.765Z,0
2017-04-04T03:19:49.366Z,0
2017-04-04T03:20:29.938Z,0
2017-04-04T03:21:10.590Z,0
2017-04-04T03:21:51.165Z,0
2017-04-04T03:22:32.781Z,0
2017-04-04T03:23:13.374Z,0
2017-04-04T03:23:54.020Z,0
2017-04-04T03:24:34.595Z,0
2017-04-04T03:25:16.210Z,0
2017-04-04T03:25:56.802Z,0
2017-04-04T03:26:37.448Z,0
2017-04-04T03:27:18.108Z,0
2017-04-04T03:27:58.762Z,0
2017-04-04T03:28:39.414Z,0
2017-04-04T03:29:20.062Z,0
2017-04-04T03:30:00.712Z,0
2017-04-04T03:30:41.373Z,0
2017-04-04T03:31:22.026Z,0
2017-04-04T03:32:02.596Z,0
2017-04-04T03:32:43.186Z,0
2017-04-04T03:33:23.778Z,0
2017-04-04T03:34:05.457Z,0
2017-04-04T03:34:46.007Z,0
2017-04-04T03:35:26.625Z,0
2017-04-04T03:36:07.212Z,0
2017-04-04T03:36:47.862Z,0
2017-04-04T03:37:28.515Z,0
2017-04-04T03:38:09.168Z,0
2017-04-04T03:38:49.820Z,0
2017-04-04T03:39:30.476Z,0
2017-04-04T03:40:11.126Z,0
2017-04-04T03:40:51.782Z,0
2017-04-04T03:41:32.431Z,0
2017-04-04T03:42:13.085Z,0
2017-04-04T03:42:55.675Z,0
2017-04-04T03:43:36.337Z,0
2017-04-04T03:44:16.989Z,0
2017-04-04T03:44:57.646Z,0
2017-04-04T03:45:38.305Z,0
2017-04-04T03:46:19.981Z,0
2017-04-04T03:47:00.629Z,0
2017-04-04T03:47:41.275Z,0
2017-04-04T03:48:21.930Z,0
2017-04-04T03:49:02.582Z,0
2017-04-04T03:49:43.240Z,0
2017-04-04T03:50:23.886Z,0
2017-04-04T03:51:04.557Z,0
2017-04-04T03:51:45.211Z,0
2017-04-04T03:52:26.871Z,0
2017-04-04T03:53:07.525Z,0
2017-04-04T03:53:48.181Z,0
2017-04-04T03:54:28.831Z,0
2017-04-04T03:55:09.495Z,0
2017-04-04T03:55:50.066Z,0
2017-04-04T03:56:31.687Z,0
2017-04-04T03:57:12.270Z,0
2017-04-04T03:57:52.925Z,0
2017-04-04T03:58:33.499Z,0
2017-04-04T03:59:14.074Z,0
2017-04-04T03:59:54.687Z,0
2017-04-04T04:00:35.331Z,0
2017-04-04T04:01:15.905Z,0
2017-04-04T04:01:56.501Z,0
2017-04-04T04:02:37.085Z,0
2017-04-04T04:03:17.738Z,0
2017-04-04T04:03:58.330Z,0
2017-04-04T04:04:39.017Z,0
2017-04-04T04:05:20.625Z,0
2017-04-04T04:06:01.272Z,0
2017-04-04T04:06:41.838Z,0
2017-04-04T04:07:22.476Z,0
2017-04-04T04:08:03.134Z,0
2017-04-04T04:08:43.704Z,0
2017-04-04T04:09:24.338Z,0
2017-04-04T04:10:04.984Z,0
2017-04-04T04:10:45.618Z,0
2017-04-04T04:11:26.293Z,0
2017-04-04T04:12:06.944Z,0
2017-04-04T04:12:48.615Z,0
2017-04-04T04:13:29.267Z,0
2017-04-04T04:14:09.933Z,0
2017-04-04T04:14:51.592Z,0
2017-04-04T04:15:33.268Z,0
2017-04-04T04:16:14.959Z,0
2017-04-04T04:16:55.605Z,0
2017-04-04T04:17:36.270Z,0
2017-04-04T04:18:17.951Z,0
2017-04-04T04:18:58.596Z,0
2017-04-04T04:19:39.258Z,0
2017-04-04T04:20:19.899Z,0
2017-04-04T04:21:00.558Z,0
2017-04-04T04:21:41.214Z,0
2017-04-04T04:22:22.891Z,4
2017-04-04T04:23:03.544Z,4
2017-04-04T04:23:44.196Z,4
2017-04-04T04:24:24.843Z,4
2017-04-04T04:25:05.504Z,4
2017-04-04T04:25:46.154Z,0
2017-04-04T04:26:26.707Z,4
2017-04-04T04:27:07.358Z,4
2017-04-04T04:27:48.010Z,4
2017-04-04T04:28:28.578Z,4
2017-04-04T04:29:09.215Z,4
2017-04-04T04:29:49.871Z,4
2017-04-04T04:30:30.439Z,8
2017-04-04T04:31:11.053Z,4
2017-04-04T04:31:52.641Z,8
2017-04-04T04:32:33.222Z,4
2017-04-04T04:33:13.897Z,8
2017-04-04T04:33:54.502Z,8
2017-04-04T04:34:35.155Z,12
2017-04-04T04:35:15.711Z,8
2017-04-04T04:35:56.318Z,12
2017-04-04T04:36:36.908Z,16
2017-04-04T04:37:17.562Z,16
2017-04-04T04:37:58.208Z,16
2017-04-04T04:38:38.866Z,16
2017-04-04T04:39:19.515Z,20
2017-04-04T04:40:00.174Z,24
2017-04-04T04:40:40.822Z,24
2017-04-04T04:41:21.476Z,24
2017-04-04T04:42:02.128Z,28
2017-04-04T04:42:43.803Z,36
2017-04-04T04:43:26.406Z,52
2017-04-04T04:44:07.062Z,56
2017-04-04T04:44:47.710Z,44
2017-04-04T04:45:28.363Z,48
2017-04-04T04:46:09.023Z,52
2017-04-04T04:46:49.666Z,60
2017-04-04T04:47:30.321Z,64
2017-04-04T04:48:10.972Z,68
2017-04-04T04:48:51.627Z,76
2017-04-04T04:49:34.225Z,84
2017-04-04T04:50:14.875Z,88
2017-04-04T04:50:56.557Z,96
2017-04-04T04:51:37.207Z,104
2017-04-04T04:52:17.860Z,112
2017-04-04T04:52:58.515Z,120
2017-04-04T04:53:39.168Z,132
2017-04-04T04:54:20.844Z,140
2017-04-04T04:55:01.503Z,152
2017-04-04T04:55:42.148Z,156
2017-04-04T04:56:22.719Z,172
2017-04-04T04:57:03.364Z,180
2017-04-04T04:57:44.006Z,192
2017-04-04T04:58:24.583Z,204
2017-04-04T04:59:05.219Z,216
2017-04-04T04:59:45.865Z,228
2017-04-04T05:00:26.448Z,244
2017-04-04T05:01:07.094Z,260
2017-04-04T05:01:47.725Z,276
2017-04-04T05:02:28.375Z,288
2017-04-04T05:03:09.030Z,308
2017-04-04T05:03:49.599Z,324
2017-04-04T05:04:30.201Z,340
2017-04-04T05:05:10.887Z,360
2017-04-04T05:05:51.541Z,376
2017-04-04T05:06:32.128Z,396
2017-04-04T05:07:12.805Z,416
2017-04-04T05:07:53.417Z,436
2017-04-04T05:08:34.144Z,456
2017-04-04T05:09:14.726Z,480
2017-04-04T05:09:55.399Z,500
2017-04-04T05:10:36.026Z,524
2017-04-04T05:11:16.656Z,544
2017-04-04T05:11:57.314Z,568
2017-04-04T05:12:37.897Z,588
2017-04-04T05:13:18.559Z,616
2017-04-04T05:13:59.237Z,644
2017-04-04T05:14:39.877Z,676
2017-04-04T05:15:20.521Z,692
2017-04-04T05:16:01.195Z,720
2017-04-04T05:16:41.837Z,748
2017-04-04T05:17:22.505Z,776
2017-04-04T05:18:03.147Z,800
2017-04-04T05:18:43.794Z,828
2017-04-04T05:19:24.443Z,856
2017-04-04T05:20:05.107Z,884
2017-04-04T05:20:45.764Z,904
2017-04-04T05:21:26.408Z,936
2017-04-04T05:22:07.049Z,964
2017-04-04T05:22:47.725Z,992
2017-04-04T05:23:28.365Z,1020
2017-04-04T05:24:09.023Z,1048
2017-04-04T05:24:49.699Z,1072
2017-04-04T05:25:30.340Z,1104
2017-04-04T05:26:10.970Z,1132
2017-04-04T05:26:52.616Z,1156
2017-04-04T05:27:33.252Z,1192
2017-04-04T05:28:13.819Z,1216
2017-04-04T05:28:54.400Z,1252
2017-04-04T05:29:35.012Z,1276
2017-04-04T05:30:15.657Z,1304
2017-04-04T05:30:56.230Z,1340
2017-04-04T05:31:36.826Z,1372
2017-04-04T05:32:17.424Z,1400
2017-04-04T05:32:59.103Z,1428
2017-04-04T05:33:39.675Z,1456
2017-04-04T05:34:20.329Z,1484
2017-04-04T05:35:00.952Z,1512
2017-04-04T05:35:42.631Z,1540
2017-04-04T05:36:23.198Z,1568
2017-04-04T05:37:03.876Z,1584
2017-04-04T05:37:44.533Z,1620
2017-04-04T05:38:25.130Z,1640
2017-04-04T05:39:06.821Z,1672
2017-04-04T05:39:48.490Z,1696
2017-04-04T05:40:29.138Z,1716
2017-04-04T05:41:09.741Z,1752
2017-04-04T05:41:50.417Z,1772
2017-04-04T05:42:30.995Z,1804
2017-04-04T05:43:11.661Z,1824
2017-04-04T05:43:52.233Z,1844
2017-04-04T05:44:32.817Z,1872
2017-04-04T05:45:13.511Z,1896
2017-04-04T05:45:54.162Z,1916
2017-04-04T05:46:34.742Z,1936
2017-04-04T05:47:15.438Z,1956
2017-04-04T05:47:56.012Z,1980
2017-04-04T05:48:36.596Z,2004
2017-04-04T05:49:17.215Z,2020
2017-04-04T05:49:57.789Z,2036
2017-04-04T05:50:38.379Z,2052
2017-04-04T05:51:18.977Z,2072
2017-04-04T05:51:59.624Z,2092
2017-04-04T05:52:40.198Z,2116
2017-04-04T05:53:20.786Z,2136
2017-04-04T05:54:01.377Z,2156
2017-04-04T05:54:42.060Z,2176
2017-04-04T05:55:22.664Z,2192
2017-04-04T05:56:03.343Z,2212
2017-04-04T05:56:43.996Z,2232
2017-04-04T05:57:24.659Z,2248
2017-04-04T05:58:05.292Z,2264
2017-04-04T05:58:45.954Z,2292
2017-04-04T05:59:26.603Z,2312
2017-04-04T06:00:07.261Z,2328
2017-04-04T06:00:47.914Z,2348
2017-04-04T06:01:28.557Z,2356
2017-04-04T06:02:09.210Z,2372
2017-04-04T06:02:50.911Z,2384
2017-04-04T06:03:32.581Z,2396
2017-04-04T06:04:13.168Z,2416
2017-04-04T06:04:53.827Z,2428
2017-04-04T06:05:34.473Z,2444
2017-04-04T06:06:15.161Z,2464
2017-04-04T06:06:55.841Z,2488
2017-04-04T06:07:36.496Z,2508
2017-04-04T06:08:22.671Z,2536
2017-04-04T06:09:03.320Z,2556
2017-04-04T06:09:43.983Z,2572
2017-04-04T06:10:25.656Z,2612
2017-04-04T06:11:06.314Z,2608
2017-04-04T06:11:47.995Z,2620
2017-04-04T06:12:28.626Z,2628
2017-04-04T06:13:10.310Z,2644
2017-04-04T06:13:50.944Z,2656
2017-04-04T06:14:31.607Z,2668
2017-04-04T06:15:12.295Z,2684
2017-04-04T06:15:52.915Z,2692
2017-04-04T06:16:33.592Z,2708
2017-04-04T06:17:14.164Z,2720
2017-04-04T06:17:54.856Z,2736
2017-04-04T06:18:35.533Z,2748
2017-04-04T06:19:16.188Z,2764
2017-04-04T06:19:56.762Z,2772
2017-04-04T06:20:37.345Z,2780
2017-04-04T06:21:17.947Z,2792
2017-04-04T06:21:58.606Z,2804
2017-04-04T06:22:39.169Z,2816
2017-04-04T06:23:19.768Z,2824
2017-04-04T06:24:00.479Z,2832
2017-04-04T06:24:41.104Z,2840
2017-04-04T06:25:21.679Z,2852
2017-04-04T06:26:02.280Z,2864
2017-04-04T06:26:42.888Z,2868
2017-04-04T06:27:23.510Z,2872
2017-04-04T06:28:04.104Z,2856
2017-04-04T06:28:44.804Z,2872
2017-04-04T06:29:25.463Z,2868
2017-04-04T06:30:06.122Z,2864
2017-04-04T06:30:46.699Z,2864
2017-04-04T06:31:27.310Z,2872
2017-04-04T06:32:07.948Z,2872
2017-04-04T06:32:49.615Z,2880
2017-04-04T06:33:30.273Z,2888
2017-04-04T06:34:10.959Z,2900
2017-04-04T06:34:51.572Z,2912
2017-04-04T06:35:32.213Z,2928
2017-04-04T06:36:12.789Z,2928
2017-04-04T06:36:53.362Z,2944
2017-04-04T06:37:34.019Z,2944
2017-04-04T06:38:14.564Z,2944
2017-04-04T06:38:55.227Z,2948
2017-04-04T06:39:35.799Z,2952
2017-04-04T06:40:16.430Z,2956
2017-04-04T06:40:57.033Z,2964
2017-04-04T06:41:37.634Z,2972
2017-04-04T06:42:19.106Z,2980
2017-04-04T06:42:59.703Z,2984
2017-04-04T06:43:40.354Z,2996
2017-04-04T06:44:20.965Z,3004
2017-04-04T06:45:01.615Z,3012
2017-04-04T06:45:42.216Z,3020
2017-04-04T06:46:22.900Z,3024
2017-04-04T06:47:03.576Z,3028
2017-04-04T06:47:44.147Z,3028
2017-04-04T06:48:24.785Z,3040
2017-04-04T06:49:05.469Z,3048
2017-04-04T06:49:46.057Z,3056
2017-04-04T06:50:27.332Z,3048
2017-04-04T06:51:08.015Z,3072
2017-04-04T06:51:48.594Z,3072
2017-04-04T06:52:29.241Z,3100
2017-04-04T06:53:10.881Z,3112
2017-04-04T06:53:51.463Z,3128
2017-04-04T06:54:32.107Z,3144
2017-04-04T06:55:12.680Z,3160
2017-04-04T06:55:53.309Z,3160
2017-04-04T06:56:33.956Z,3212
2017-04-04T06:57:14.646Z,3216
2017-04-04T06:57:55.500Z,3148
2017-04-04T06:58:37.158Z,3208
2017-04-04T06:59:17.788Z,3200
2017-04-04T06:59:58.367Z,3216
2017-04-04T07:00:39.039Z,3244
2017-04-04T07:01:20.683Z,3264
2017-04-04T07:02:01.324Z,3256
2017-04-04T07:02:41.988Z,3276
2017-04-04T07:03:22.641Z,3304
2017-04-04T07:04:03.233Z,3336
2017-04-04T07:04:43.827Z,3336
2017-04-04T07:05:24.561Z,3328
2017-04-04T07:06:05.150Z,3348
2017-04-04T07:06:45.790Z,3376
2017-04-04T07:07:26.457Z,3396
2017-04-04T07:08:07.169Z,3392
2017-04-04T07:08:47.846Z,3392
2017-04-04T07:09:28.519Z,3396
2017-04-04T07:10:09.157Z,3396
2017-04-04T07:10:49.824Z,3408
2017-04-04T07:11:30.575Z,3416
2017-04-04T07:12:11.216Z,3428
2017-04-04T07:12:51.815Z,3440
2017-04-04T07:13:32.482Z,3408
2017-04-04T07:14:13.229Z,3452
2017-04-04T07:14:53.929Z,3424
2017-04-04T07:15:34.498Z,3448
2017-04-04T07:16:15.087Z,3456
2017-04-04T07:16:55.701Z,3468
2017-04-04T07:17:36.337Z,3468
2017-04-04T07:18:16.920Z,3488
2017-04-04T07:18:57.510Z,3492
2017-04-04T07:19:38.079Z,3512
2017-04-04T07:20:18.741Z,3496
2017-04-04T07:20:59.324Z,3500
2017-04-04T07:21:40.038Z,3496
2017-04-04T07:22:20.697Z,3500
2017-04-04T07:23:01.269Z,3508
2017-04-04T07:23:41.866Z,3512
2017-04-04T07:24:22.422Z,3504
2017-04-04T07:25:02.993Z,3484
2017-04-04T07:25:43.570Z,3488
2017-04-04T07:26:24.141Z,3468
2017-04-04T07:27:04.684Z,3528
2017-04-04T07:27:46.336Z,3524
2017-04-04T07:28:26.925Z,3524
2017-04-04T07:29:13.493Z,3528
2017-04-04T07:29:54.133Z,3532
2017-04-04T07:30:34.838Z,3540
2017-04-04T07:31:15.445Z,3560
2017-04-04T07:31:56.118Z,3548
2017-04-04T07:32:37.799Z,3564
2017-04-04T07:33:18.348Z,3564
2017-04-04T07:33:59.084Z,3544
2017-04-04T07:34:39.666Z,3584
2017-04-04T07:35:21.372Z,3596
2017-04-04T07:36:04.001Z,3572
2017-04-04T07:36:44.691Z,3576
2017-04-04T07:37:25.322Z,3576
2017-04-04T07:38:05.955Z,3576
2017-04-04T07:38:46.649Z,3492
2017-04-04T07:39:27.402Z,3580
2017-04-04T07:40:08.171Z,3584
2017-04-04T07:40:48.782Z,3584
2017-04-04T07:41:30.470Z,3560
2017-04-04T07:42:11.129Z,3592
2017-04-04T07:42:51.760Z,3572
2017-04-04T07:43:32.321Z,3604
2017-04-04T07:44:12.884Z,3572
2017-04-04T07:44:53.550Z,3600
2017-04-04T07:45:34.173Z,3600
2017-04-04T07:46:14.769Z,3588
2017-04-04T07:46:55.445Z,3548
2017-04-04T07:47:36.021Z,3584
2017-04-04T07:48:16.684Z,3536
2017-04-04T07:48:57.252Z,3588
2017-04-04T07:49:37.836Z,3568
2017-04-04T07:50:18.440Z,3584
2017-04-04T07:50:59.092Z,3564
2017-04-04T07:51:39.667Z,3608
2017-04-04T07:52:20.262Z,3620
2017-04-04T07:53:01.868Z,3616
2017-04-04T07:53:42.541Z,3620
2017-04-04T07:54:23.177Z,3616
2017-04-04T07:55:03.825Z,3616
2017-04-04T07:55:45.502Z,3620
2017-04-04T07:56:26.071Z,3628
2017-04-04T07:57:06.629Z,3604
2017-04-04T07:57:47.370Z,3628
2017-04-04T07:58:28.011Z,3632
2017-04-04T07:59:08.766Z,3648
2017-04-04T07:59:49.382Z,3644
2017-04-04T08:00:29.995Z,3636
2017-04-04T08:01:10.621Z,3628
2017-04-04T08:01:51.313Z,3584
2017-04-04T08:02:31.866Z,3648
2017-04-04T08:03:12.540Z,3640
2017-04-04T08:03:53.261Z,3660
2017-04-04T08:04:33.899Z,3648
2017-04-04T08:05:14.546Z,3656
2017-04-04T08:05:55.219Z,3656
2017-04-04T08:06:35.771Z,3656
2017-04-04T08:07:16.401Z,3660
2017-04-04T08:07:56.974Z,3620
2017-04-04T08:08:37.604Z,3632
2017-04-04T08:09:18.261Z,3652
2017-04-04T08:09:58.881Z,3664
2017-04-04T08:10:39.559Z,3624
2017-04-04T08:11:20.210Z,3660
2017-04-04T08:12:00.824Z,3656
2017-04-04T08:12:41.469Z,3648
2017-04-04T08:13:22.063Z,3648
2017-04-04T08:14:02.625Z,3636
2017-04-04T08:14:43.278Z,3652
2017-04-04T08:15:23.829Z,3632
2017-04-04T08:16:04.429Z,3652
2017-04-04T08:16:45.021Z,3636
2017-04-04T08:17:25.673Z,3636
2017-04-04T08:18:06.386Z,3644
2017-04-04T08:18:47.038Z,3652
2017-04-04T08:19:27.640Z,3656
2017-04-04T08:20:08.315Z,3636
2017-04-04T08:20:49.859Z,3652
2017-04-04T08:21:36.531Z,3688
2017-04-04T08:22:18.173Z,3644
2017-04-04T08:22:58.802Z,3676
2017-04-04T08:23:39.439Z,3700
2017-04-04T08:24:20.150Z,3728
2017-04-04T08:25:00.743Z,3752
2017-04-04T08:25:41.279Z,3764
2017-04-04T08:26:21.982Z,3768
2017-04-04T08:27:02.597Z,3724
2017-04-04T08:27:43.258Z,3768
2017-04-04T08:28:23.963Z,3768
2017-04-04T08:29:04.679Z,3788
2017-04-04T08:29:45.344Z,3800
2017-04-04T08:30:26.111Z,3816
2017-04-04T08:31:06.852Z,3820
2017-04-04T08:31:47.619Z,3832
2017-04-04T08:32:28.280Z,3844
2017-04-04T08:33:09.047Z,3844
2017-04-04T08:33:49.767Z,3852
2017-04-04T08:34:30.399Z,3840
2017-04-04T08:35:11.056Z,3852
2017-04-04T08:35:51.707Z,3840
2017-04-04T08:36:32.274Z,3876
2017-04-04T08:37:12.931Z,3888
2017-04-04T08:37:53.660Z,3836
2017-04-04T08:38:34.327Z,3884
2017-04-04T08:39:14.964Z,3904
2017-04-04T08:39:55.613Z,3904
2017-04-04T08:40:36.276Z,3900
2017-04-04T08:41:16.924Z,3888
2017-04-04T08:41:57.573Z,3884
2017-04-04T08:42:38.158Z,3892
2017-04-04T08:43:18.795Z,3892
2017-04-04T08:43:59.491Z,3900
2017-04-04T08:44:40.343Z,3888
2017-04-04T08:45:21.006Z,3956
2017-04-04T08:46:02.598Z,3908
2017-04-04T08:46:43.296Z,3936
2017-04-04T08:47:23.953Z,3940
2017-04-04T08:48:04.593Z,3932
2017-04-04T08:48:45.284Z,3956
2017-04-04T08:49:27.968Z,3988
2017-04-04T08:50:08.590Z,3960
2017-04-04T08:50:50.303Z,3960
2017-04-04T08:51:30.904Z,3972
2017-04-04T08:52:12.574Z,4040
2017-04-04T08:52:55.307Z,3996
2017-04-04T08:53:37.130Z,3992
2017-04-04T08:54:17.824Z,4016
2017-04-04T08:54:58.473Z,4000
2017-04-04T08:55:39.140Z,4008
2017-04-04T08:56:19.755Z,4028
2017-04-04T08:57:00.415Z,4028
2017-04-04T08:57:41.076Z,4032
2017-04-04T08:58:21.726Z,4040
2017-04-04T08:59:02.397Z,4024
2017-04-04T08:59:43.005Z,4004
2017-04-04T09:00:23.672Z,4024
2017-04-04T09:01:05.312Z,4012
2017-04-04T09:01:45.886Z,4008
2017-04-04T09:02:26.566Z,4016
2017-04-04T09:03:07.147Z,4012
2017-04-04T09:03:47.808Z,3992
2017-04-04T09:04:28.368Z,4004
2017-04-04T09:05:09.071Z,3996
2017-04-04T09:05:49.660Z,3972
2017-04-04T09:06:30.301Z,3992
2017-04-04T09:07:10.887Z,3988
2017-04-04T09:07:51.482Z,4008
2017-04-04T09:08:32.222Z,3956
2017-04-04T09:09:12.812Z,3976
2017-04-04T09:09:53.440Z,3980
2017-04-04T09:10:34.097Z,3976
2017-04-04T09:11:14.786Z,3972
2017-04-04T09:11:55.428Z,3996
2017-04-04T09:12:37.099Z,4028
2017-04-04T09:13:17.756Z,4044
2017-04-04T09:13:58.571Z,4048
2017-04-04T09:14:39.168Z,4044
2017-04-04T09:15:19.828Z,3980
2017-04-04T09:16:01.559Z,4016
2017-04-04T09:16:42.267Z,4016
2017-04-04T09:17:22.969Z,4032
2017-04-04T09:18:04.662Z,4060
2017-04-04T09:18:45.422Z,4064
2017-04-04T09:19:26.129Z,4076
2017-04-04T09:20:06.808Z,4076
2017-04-04T09:20:47.577Z,4124
2017-04-04T09:21:28.171Z,4096
2017-04-04T09:22:08.860Z,4112
2017-04-04T09:22:50.608Z,4132
2017-04-04T09:23:32.298Z,4148
2017-04-04T09:24:14.006Z,4148
2017-04-04T09:24:55.749Z,4164
2017-04-04T09:25:36.518Z,4128
2017-04-04T09:26:17.278Z,4176
2017-04-04T09:26:57.859Z,4152
2017-04-04T09:27:38.522Z,4180
2017-04-04T09:28:19.211Z,4176
2017-04-04T09:28:59.783Z,4136
2017-04-04T09:29:40.352Z,4140
2017-04-04T09:30:20.929Z,4176
2017-04-04T09:31:01.595Z,4176
2017-04-04T09:31:42.190Z,4172
2017-04-04T09:32:22.805Z,4184